Time;durP1;ratioP1;P1;durP2;ratioP2;P2;SDS_P1;SDS_P2;PMS_P1;PMS_P2;Temp;Humidity;BMP_temperature;BMP_pressure;BME280_temperature;BME280_humidity;BME280_pressure;Samples;Min_cycle;Max_cycle;Signal;HPM_P1;HPM_P2
2021/09/05 00:00:27;;;;;;;;;28.25;26.75;;;;;22.83;69.82;101368.53;5061625;28;45356;-59
2021/09/05 00:02:53;;;;;;;;;25.75;24.75;;;;;22.82;69.41;101359.59;5061987;28;45989;-59
2021/09/05 00:05:18;;;;;;;;;25.00;25.00;;;;;22.78;69.24;101355.53;5061826;28;45266;-59
2021/09/05 00:07:44;;;;;;;;;26.75;25.00;;;;;22.77;69.10;101344.97;5062090;28;45236;-59
2021/09/05 00:10:10;;;;;;;;;29.25;26.25;;;;;22.75;69.10;101344.25;5062008;28;45553;-59
2021/09/05 00:12:36;;;;;;;;;29.75;27.25;;;;;22.71;69.18;101342.88;5061787;28;45381;-59
2021/09/05 00:15:04;;;;;;;;;35.75;31.50;;;;;22.70;69.49;101343.88;5061177;28;45317;-59
2021/09/05 00:17:30;;;;;;;;;39.00;33.50;;;;;22.69;69.54;101343.03;5071004;28;45229;-59
2021/09/05 00:19:55;;;;;;;;;36.75;31.75;;;;;22.67;69.54;101341.50;5082005;28;45618;-59
2021/09/05 00:22:21;;;;;;;;;33.75;31.00;;;;;22.65;68.89;101344.34;5079776;28;45934;-59
2021/09/05 00:24:46;;;;;;;;;44.75;35.75;;;;;22.66;69.58;101347.88;5066064;28;45180;-60
2021/09/05 00:27:12;;;;;;;;;37.00;33.25;;;;;22.63;70.19;101354.41;5061764;28;45235;-59
2021/09/05 00:29:37;;;;;;;;;41.75;33.00;;;;;22.62;69.88;101359.94;5061250;28;45231;-60
2021/09/05 00:32:03;;;;;;;;;35.50;32.75;;;;;22.64;70.17;101353.41;5061302;28;45471;-59
2021/09/05 00:34:29;;;;;;;;;38.00;31.50;;;;;22.64;70.37;101356.09;5061319;28;45225;-59
2021/09/05 00:36:54;;;;;;;;;41.75;34.25;;;;;22.63;70.68;101357.09;5061779;28;45300;-59
2021/09/05 00:39:20;;;;;;;;;36.00;32.25;;;;;22.62;71.10;101359.94;5061697;28;45267;-59
2021/09/05 00:41:45;;;;;;;;;36.25;29.75;;;;;22.60;70.39;101356.56;5061178;28;46096;-59
2021/09/05 00:44:11;;;;;;;;;41.00;34.75;;;;;22.59;71.24;101363.75;5060836;28;45876;-60
2021/09/05 00:46:38;;;;;;;;;32.25;30.25;;;;;22.56;71.17;101364.06;5061457;28;45369;-59
2021/09/05 00:49:05;;;;;;;;;38.75;31.75;;;;;22.54;71.17;101363.38;5061403;28;45306;-59
2021/09/05 00:51:35;;;;;;;;;39.00;31.75;;;;;22.51;71.40;101353.81;5061210;28;46239;-59
2021/09/05 00:54:03;;;;;;;;;40.25;31.50;;;;;22.52;71.40;101368.06;5061027;28;45354;-59
2021/09/05 00:56:32;;;;;;;;;31.50;30.00;;;;;22.52;70.92;101354.66;5061334;28;45338;-59
2021/09/05 00:59:02;;;;;;;;;35.50;29.00;;;;;22.52;71.21;101360.84;5061039;28;45199;-59
2021/09/05 01:01:29;;;;;;;;;40.75;35.25;;;;;22.51;71.04;101348.44;5060813;28;45276;-59
2021/09/05 01:03:54;;;;;;;;;42.50;33.25;;;;;22.48;71.51;101350.56;5060926;28;45322;-59
2021/09/05 01:06:20;;;;;;;;;37.00;32.75;;;;;22.50;71.50;101346.72;5061220;28;45224;-59
2021/09/05 01:08:48;;;;;;;;;40.50;32.50;;;;;22.51;71.72;101348.44;5061083;28;45416;-59
2021/09/05 01:11:14;;;;;;;;;44.50;36.25;;;;;22.52;71.20;101365.38;5060967;28;45237;-59
2021/09/05 01:13:40;;;;;;;;;43.75;35.50;;;;;22.52;71.10;101365.38;5060689;28;45224;-59
2021/09/05 01:16:05;;;;;;;;;32.00;30.25;;;;;22.52;70.51;101365.38;5076729;27;45370;-59
2021/09/05 01:18:31;;;;;;;;;37.25;30.25;;;;;22.51;70.83;101358.31;5078434;28;45404;-59
2021/09/05 01:20:56;;;;;;;;;25.50;24.50;;;;;22.50;70.27;101368.19;5081089;28;45929;-59
2021/09/05 01:23:22;;;;;;;;;29.50;27.00;;;;;22.48;70.52;101362.16;5076524;28;45298;-59
2021/09/05 01:25:48;;;;;;;;;26.75;23.75;;;;;22.48;69.74;101372.03;5060918;28;45255;-59
2021/09/05 01:28:13;;;;;;;;;23.25;20.75;;;;;22.43;69.82;101368.97;5060819;28;45355;-59
2021/09/05 01:30:39;;;;;;;;;20.00;19.25;;;;;22.42;69.80;101368.13;5060217;28;45303;-59
2021/09/05 01:33:05;;;;;;;;;17.50;17.50;;;;;22.39;68.80;101372.97;5061398;28;45220;-61
2021/09/05 01:35:34;;;;;;;;;20.25;15.75;;;;;22.33;69.12;101365.50;5064399;28;45438;-60
2021/09/05 01:38:00;;;;;;;;;21.50;21.00;;;;;22.29;69.31;101373.88;5064318;28;45329;-59
2021/09/05 01:40:25;;;;;;;;;19.25;17.75;;;;;22.26;69.16;101363.44;5064197;28;45490;-59
2021/09/05 01:42:51;;;;;;;;;18.00;15.75;;;;;22.25;68.68;101372.47;5064108;28;45279;-59
2021/09/05 01:45:16;;;;;;;;;16.75;16.50;;;;;22.25;68.66;101374.31;5063943;28;45508;-59
2021/09/05 01:47:42;;;;;;;;;17.50;16.25;;;;;22.23;69.33;101379.84;5064155;28;45369;-59
2021/09/05 01:50:07;;;;;;;;;21.00;18.50;;;;;22.22;68.86;101370.09;5063988;28;46192;-59
2021/09/05 01:52:33;;;;;;;;;20.50;18.00;;;;;22.21;68.71;101379.16;5063755;28;45240;-59
2021/09/05 01:54:58;;;;;;;;;23.25;18.25;;;;;22.20;68.31;101380.16;5064218;28;45425;-59
2021/09/05 01:57:24;;;;;;;;;18.75;16.00;;;;;22.18;68.66;101379.44;5063923;28;45264;-59
2021/09/05 01:59:49;;;;;;;;;15.50;14.25;;;;;22.19;68.73;101382.97;5063547;28;45279;-59
2021/09/05 02:02:15;;;;;;;;;16.25;16.25;;;;;22.19;68.60;101391.88;5063578;28;45200;-62
2021/09/05 02:04:40;;;;;;;;;15.25;14.25;;;;;22.18;69.10;101389.34;5064140;28;45282;-60
2021/09/05 02:07:06;;;;;;;;;17.50;15.00;;;;;22.18;68.82;101382.13;5063738;28;45568;-60
2021/09/05 02:09:31;;;;;;;;;19.75;16.25;;;;;22.19;68.97;101385.66;5063876;28;45946;-59
2021/09/05 02:11:57;;;;;;;;;18.75;17.50;;;;;22.19;69.11;101382.97;5063587;28;45160;-59
2021/09/05 02:14:22;;;;;;;;;19.75;16.25;;;;;22.18;68.20;101378.59;5063546;28;45346;-60
2021/09/05 02:16:48;;;;;;;;;18.00;15.75;;;;;22.16;68.32;101373.38;5066704;28;45219;-59
2021/09/05 02:19:13;;;;;;;;;16.50;13.75;;;;;22.14;68.64;101377.22;5084068;27;46032;-59
2021/09/05 02:21:39;;;;;;;;;20.50;16.50;;;;;22.10;68.40;101381.19;5083612;27;45318;-59
2021/09/05 02:24:04;;;;;;;;;15.75;13.75;;;;;22.09;68.50;101377.66;5074252;28;45504;-59
2021/09/05 02:26:30;;;;;;;;;15.00;13.50;;;;;22.06;68.39;101375.25;5063625;28;45638;-59
2021/09/05 02:28:55;;;;;;;;;21.75;18.50;;;;;22.05;68.65;101376.25;5063188;28;45882;-59
2021/09/05 02:31:21;;;;;;;;;16.50;14.75;;;;;22.03;68.73;101379.06;5063057;28;45263;-59
2021/09/05 02:33:46;;;;;;;;;12.50;12.50;;;;;22.05;68.93;101380.78;5063574;28;45260;-59
2021/09/05 02:36:12;;;;;;;;;17.50;14.75;;;;;22.05;68.80;101381.63;5063378;28;45311;-59
2021/09/05 02:38:37;;;;;;;;;22.50;16.25;;;;;22.04;68.46;101377.25;5063237;28;46389;-59
2021/09/05 02:41:03;;;;;;;;;18.25;15.50;;;;;22.05;68.30;101375.41;5063184;28;45263;-60
2021/09/05 02:43:28;;;;;;;;;19.50;18.25;;;;;22.03;68.30;101378.22;5062951;28;45274;-59
2021/09/05 02:45:54;;;;;;;;;16.75;15.00;;;;;22.02;68.34;101382.75;5062835;28;45300;-59
2021/09/05 02:48:20;;;;;;;;;15.00;13.50;;;;;22.02;68.35;101382.75;5063397;28;45281;-59
2021/09/05 02:50:45;;;;;;;;;16.00;14.25;;;;;22.03;68.68;101378.22;5078653;28;45455;-59
2021/09/05 02:53:11;;;;;;;;;16.00;16.00;;;;;22.05;68.76;101378.09;5061744;28;45269;-59
2021/09/05 02:55:36;;;;;;;;;17.00;16.00;;;;;22.05;68.58;101380.78;5063090;28;45215;-59
2021/09/05 02:58:02;;;;;;;;;18.25;17.50;;;;;22.03;68.55;101378.22;5063097;28;45220;-59
2021/09/05 03:00:27;;;;;;;;;18.50;15.50;;;;;22.05;68.94;101380.78;5062560;28;45173;-59
2021/09/05 03:02:53;;;;;;;;;16.50;15.00;;;;;22.03;69.25;101376.38;5063140;28;45239;-59
2021/09/05 03:05:19;;;;;;;;;12.75;11.25;;;;;22.01;69.09;101378.38;5062918;28;45227;-59
2021/09/05 03:07:44;;;;;;;;;16.00;15.00;;;;;22.01;69.43;101382.91;5062744;28;45423;-59
2021/09/05 03:10:10;;;;;;;;;18.50;16.50;;;;;21.98;69.84;101381.38;5062788;28;45311;-59
2021/09/05 03:12:36;;;;;;;;;17.50;16.25;;;;;21.95;69.31;101375.44;5062974;28;45325;-59
2021/09/05 03:15:01;;;;;;;;;14.75;12.00;;;;;21.96;69.46;101377.13;5062282;28;45318;-59
2021/09/05 03:17:28;;;;;;;;;16.00;15.00;;;;;21.98;69.50;101375.16;5071599;28;45925;-59
2021/09/05 03:19:53;;;;;;;;;14.50;14.50;;;;;21.98;69.30;101378.69;5082845;27;45327;-59
2021/09/05 03:22:19;;;;;;;;;14.25;13.50;;;;;21.99;68.76;101376.84;5082859;28;45319;-59
2021/09/05 03:24:44;;;;;;;;;16.25;16.25;;;;;21.99;68.79;101377.69;5066489;28;45363;-59
2021/09/05 03:27:10;;;;;;;;;19.00;15.50;;;;;22.00;68.49;101378.53;5062437;28;45157;-59
2021/09/05 03:29:35;;;;;;;;;15.00;13.75;;;;;22.00;68.70;101376.69;5062036;28;45149;-59
2021/09/05 03:32:01;;;;;;;;;19.75;19.75;;;;;21.99;68.42;101382.22;5062723;28;45581;-59
2021/09/05 03:34:26;;;;;;;;;14.50;14.50;;;;;21.98;68.88;101376.00;5062646;28;45234;-59
2021/09/05 03:36:52;;;;;;;;;21.75;16.25;;;;;21.99;68.78;101374.16;5062380;28;45899;-59
2021/09/05 03:39:17;;;;;;;;;14.00;14.00;;;;;21.99;68.82;101372.31;5062340;28;45286;-59
2021/09/05 03:41:43;;;;;;;;;18.50;16.00;;;;;21.94;68.87;101371.91;5062533;28;45161;-59
2021/09/05 03:44:09;;;;;;;;;16.75;15.25;;;;;21.93;68.89;101372.91;5062009;28;45261;-59
2021/09/05 03:46:34;;;;;;;;;17.00;15.50;;;;;21.95;68.91;101370.09;5077860;28;45408;-59
2021/09/05 03:49:00;;;;;;;;;17.50;15.00;;;;;21.94;68.55;101366.56;5062056;28;45257;-59
2021/09/05 03:51:25;;;;;;;;;19.75;14.75;;;;;21.94;68.77;101366.56;5062264;28;45324;-59
2021/09/05 03:53:51;;;;;;;;;18.25;16.00;;;;;21.97;68.61;101376.16;5077853;28;45395;-59
2021/09/05 03:56:18;;;;;;;;;17.25;16.25;;;;;21.96;68.63;101371.78;5061145;28;45953;-59
2021/09/05 03:58:43;;;;;;;;;16.75;16.75;;;;;21.95;68.33;101365.56;5061632;28;45338;-59
2021/09/05 04:01:09;;;;;;;;;18.50;17.50;;;;;21.93;68.66;101366.72;5062104;28;45366;-59
2021/09/05 04:03:34;;;;;;;;;21.00;16.75;;;;;21.92;68.67;101362.34;5061939;28;45437;-59
2021/09/05 04:06:02;;;;;;;;;16.75;15.75;;;;;21.92;68.71;101367.72;5061872;28;46087;-59
2021/09/05 04:08:45;;;;;;;;;19.25;17.75;;;;;21.92;68.66;101368.56;5061710;28;45326;-59
2021/09/05 04:11:11;;;;;;;;;21.00;18.50;;;;;21.92;68.95;101371.22;5061829;28;45223;-59
2021/09/05 04:13:36;;;;;;;;;17.25;15.75;;;;;21.89;68.58;101360.81;5061547;28;45423;-59
2021/09/05 04:16:02;;;;;;;;;16.75;14.75;;;;;21.89;69.04;101373.38;5061570;28;45327;-59
2021/09/05 04:18:28;;;;;;;;;16.50;16.50;;;;;21.88;68.94;101380.59;5078880;28;45223;-59
2021/09/05 04:20:53;;;;;;;;;24.50;20.25;;;;;21.89;68.82;101381.44;5082227;28;45414;-59
2021/09/05 04:23:19;;;;;;;;;26.75;24.25;;;;;21.87;68.41;101386.06;5078112;28;45427;-59
2021/09/05 04:25:44;;;;;;;;;34.50;29.50;;;;;21.87;68.58;101381.56;5061615;28;45838;-59
2021/09/05 04:28:10;;;;;;;;;43.50;36.25;;;;;21.86;68.75;101379.03;5061450;28;45413;-59
2021/09/05 04:30:35;;;;;;;;;52.25;42.75;;;;;21.85;68.73;101380.88;5061583;28;45306;-59
2021/09/05 04:33:01;;;;;;;;;54.25;44.25;;;;;21.84;68.64;101381.88;5061484;28;45228;-59
2021/09/05 04:35:26;;;;;;;;;52.50;42.75;;;;;21.82;68.61;101380.34;5061563;28;45292;-59
2021/09/05 04:37:52;;;;;;;;;60.75;45.75;;;;;21.81;68.67;101384.84;5061281;28;45307;-59
2021/09/05 04:40:17;;;;;;;;;52.50;41.00;;;;;21.80;68.92;101385.81;5061544;28;45336;-59
2021/09/05 04:42:43;;;;;;;;;47.25;40.25;;;;;21.78;68.96;101390.50;5061312;28;45236;-59
2021/09/05 04:45:09;;;;;;;;;47.50;39.50;;;;;21.78;68.97;101390.50;5060781;28;45574;-59
2021/09/05 04:47:34;;;;;;;;;47.00;37.00;;;;;21.76;68.97;101389.81;5061102;28;45350;-59
2021/09/05 04:50:00;;;;;;;;;43.00;36.75;;;;;21.76;68.93;101397.00;5061352;28;45221;-59
2021/09/05 04:52:26;;;;;;;;;47.25;34.75;;;;;21.72;68.81;101401.81;5061040;28;45473;-59
2021/09/05 04:54:51;;;;;;;;;36.00;31.25;;;;;21.71;68.77;101405.47;5061157;28;45995;-59
2021/09/05 04:57:17;;;;;;;;;33.75;30.00;;;;;21.68;68.84;101403.09;5061183;28;45212;-59
2021/09/05 04:59:42;;;;;;;;;31.25;28.25;;;;;21.66;68.76;101408.63;5060971;28;45303;-59
2021/09/05 05:02:08;;;;;;;;;36.50;32.00;;;;;21.67;69.08;101404.94;5061036;28;45445;-59
2021/09/05 05:04:33;;;;;;;;;26.50;24.75;;;;;21.66;68.80;101411.31;5061196;28;45170;-59
2021/09/05 05:06:58;;;;;;;;;26.00;22.00;;;;;21.66;68.93;101419.34;5060615;28;45233;-60
2021/09/05 05:09:24;;;;;;;;;23.75;20.75;;;;;21.66;68.59;101419.34;5061154;28;45233;-60
2021/09/05 05:11:49;;;;;;;;;23.00;20.00;;;;;21.67;68.46;101421.03;5060844;28;45497;-59
2021/09/05 05:14:15;;;;;;;;;21.75;19.00;;;;;21.65;68.51;101417.66;5060612;28;45906;-59
2021/09/05 05:16:40;;;;;;;;;19.25;17.75;;;;;21.66;68.51;101423.88;5062857;28;45326;-59
2021/09/05 05:19:06;;;;;;;;;21.50;19.50;;;;;21.63;68.42;101426.81;5081405;28;45429;-59
2021/09/05 05:21:32;;;;;;;;;16.00;14.75;;;;;21.64;68.52;101434.72;5080993;27;45417;-59
2021/09/05 05:23:58;;;;;;;;;16.00;16.00;;;;;21.63;68.33;101438.38;5072196;27;46208;-59
2021/09/05 05:26:26;;;;;;;;;20.50;17.75;;;;;21.62;68.41;101435.84;5060681;28;45501;-59
2021/09/05 05:28:52;;;;;;;;;21.50;16.75;;;;;21.61;68.24;101439.53;5060626;28;45249;-59
2021/09/05 05:31:18;;;;;;;;;17.25;16.75;;;;;21.60;68.11;101440.53;5060548;28;45477;-59
2021/09/05 05:33:43;;;;;;;;;17.00;17.00;;;;;21.59;68.33;101441.53;5060628;28;46199;-59
2021/09/05 05:36:09;;;;;;;;;19.00;19.00;;;;;21.58;68.40;101439.84;5060675;28;45210;-59
2021/09/05 05:38:36;;;;;;;;;19.50;15.75;;;;;21.57;68.38;101438.16;5060840;28;45351;-59
2021/09/05 05:41:02;;;;;;;;;14.50;12.50;;;;;21.56;68.35;101442.63;5060575;28;45393;-59
2021/09/05 05:43:27;;;;;;;;;17.00;16.00;;;;;21.56;68.47;101439.13;5060245;28;46242;-59
2021/09/05 05:45:53;;;;;;;;;23.00;18.50;;;;;21.57;68.44;101438.16;5060516;28;45314;-59
2021/09/05 05:48:18;;;;;;;;;19.75;18.00;;;;;21.56;68.33;101436.44;5060741;28;45437;-59
2021/09/05 05:50:47;;;;;;;;;21.25;18.50;;;;;21.58;68.30;101438.00;5060557;28;45259;-59
2021/09/05 05:53:12;;;;;;;;;18.00;16.25;;;;;21.59;68.51;101442.38;5060360;28;45275;-59
2021/09/05 05:55:38;;;;;;;;;19.00;16.75;;;;;21.61;68.25;101448.41;5060430;28;45280;-59
2021/09/05 05:58:03;;;;;;;;;18.50;17.75;;;;;21.60;68.49;101452.09;5060185;28;45340;-59
2021/09/05 06:00:30;;;;;;;;;20.75;18.25;;;;;21.59;68.54;101453.09;5060067;28;45444;-59
2021/09/05 06:02:56;;;;;;;;;19.50;19.00;;;;;21.60;68.50;101451.25;5060213;28;45412;-59
2021/09/05 06:05:21;;;;;;;;;17.25;16.75;;;;;21.63;68.34;101451.78;5060247;28;45335;-59
2021/09/05 06:07:48;;;;;;;;;22.25;18.50;;;;;21.65;68.15;101455.19;5060305;28;45434;-59
2021/09/05 06:10:13;;;;;;;;;21.50;18.00;;;;;21.67;68.21;101455.06;5060338;28;45504;-59
2021/09/05 06:12:39;;;;;;;;;19.75;19.25;;;;;21.65;68.35;101457.03;5060113;28;45319;-59
2021/09/05 06:15:06;;;;;;;;;18.00;18.00;;;;;21.67;68.18;101458.56;5059726;28;45269;-59
2021/09/05 06:17:31;;;;;;;;;20.75;18.50;;;;;21.69;67.95;101467.31;5069694;28;45222;-59
2021/09/05 06:19:57;;;;;;;;;20.50;20.50;;;;;21.70;68.17;101463.63;5082530;28;45255;-59
2021/09/05 06:22:23;;;;;;;;;24.75;21.25;;;;;21.71;68.06;101469.84;5083469;28;46099;-59
2021/09/05 06:24:48;;;;;;;;;26.25;25.25;;;;;21.72;68.19;101471.53;5067741;28;45230;-59
2021/09/05 06:27:13;;;;;;;;;22.75;22.00;;;;;21.71;67.92;101481.41;5063667;28;45281;-59
2021/09/05 06:29:39;;;;;;;;;24.75;21.00;;;;;21.70;67.87;101477.03;5063117;28;45211;-59
2021/09/05 06:32:05;;;;;;;;;20.50;20.50;;;;;21.71;67.76;101486.78;5063395;28;45968;-59
2021/09/05 06:34:30;;;;;;;;;22.25;18.50;;;;;21.74;67.79;101489.19;5063190;28;45485;-59
2021/09/05 06:36:56;;;;;;;;;22.50;22.00;;;;;21.76;67.67;101494.41;5062241;28;45328;-59
2021/09/05 06:39:21;;;;;;;;;24.00;22.00;;;;;21.79;67.76;101501.31;5063268;28;45366;-59
2021/09/05 06:41:47;;;;;;;;;21.75;20.50;;;;;21.79;67.47;101503.97;5063088;28;46559;-59
2021/09/05 06:44:12;;;;;;;;;21.75;20.25;;;;;21.77;67.53;101505.97;5062743;28;45354;-59
2021/09/05 06:46:38;;;;;;;;;23.25;22.00;;;;;21.72;67.28;101507.25;5063379;28;45291;-59
2021/09/05 06:49:03;;;;;;;;;17.75;15.75;;;;;21.71;67.54;101516.28;5063252;28;45248;-59
2021/09/05 06:51:29;;;;;;;;;20.00;20.00;;;;;21.72;67.35;101517.13;5063386;28;45339;-59
2021/09/05 06:53:54;;;;;;;;;20.00;20.00;;;;;21.73;67.37;101516.16;5062826;28;45300;-59
2021/09/05 06:56:20;;;;;;;;;20.25;19.50;;;;;21.76;67.51;101521.22;5063204;28;45256;-59
2021/09/05 06:58:46;;;;;;;;;20.50;18.50;;;;;21.78;67.17;101515.72;5062784;28;45358;-59
2021/09/05 07:01:12;;;;;;;;;23.25;22.75;;;;;21.80;67.11;101527.97;5062698;28;45791;-59
2021/09/05 07:03:37;;;;;;;;;18.25;18.00;;;;;21.79;67.04;101528.97;5062762;28;45227;-59
2021/09/05 07:06:03;;;;;;;;;19.75;19.25;;;;;21.79;66.57;101533.47;5063386;28;45300;-59
2021/09/05 07:08:28;;;;;;;;;20.25;18.25;;;;;21.80;66.61;101530.66;5062814;28;45219;-59
2021/09/05 07:10:54;;;;;;;;;22.00;20.75;;;;;21.83;66.86;101532.22;5062900;28;45822;-59
2021/09/05 07:13:19;;;;;;;;;20.75;20.75;;;;;21.84;66.52;101533.91;5062380;28;45361;-59
2021/09/05 07:15:44;;;;;;;;;25.75;21.25;;;;;21.86;66.70;101531.91;5062810;28;45437;-59
2021/09/05 07:18:10;;;;;;;;;23.25;21.00;;;;;21.86;65.79;101530.09;5077460;28;45346;-59
2021/09/05 07:20:35;;;;;;;;;17.50;16.75;;;;;21.88;66.48;101532.63;5082968;28;45329;-59
2021/09/05 07:23:01;;;;;;;;;19.50;18.25;;;;;21.90;66.30;101541.38;5081708;28;45313;-59
2021/09/05 07:25:27;;;;;;;;;21.50;21.25;;;;;21.93;66.38;101533.03;5062811;28;45326;-59
2021/09/05 07:27:54;;;;;;;;;20.75;19.50;;;;;21.94;66.00;101527.50;5062452;28;45310;-59
2021/09/05 07:30:19;;;;;;;;;21.00;19.25;;;;;21.99;66.65;101530.63;5061857;28;46144;-59
2021/09/05 07:32:45;;;;;;;;;21.00;20.00;;;;;22.04;66.38;101532.88;5062341;28;45312;-59
2021/09/05 07:35:11;;;;;;;;;21.25;19.25;;;;;22.09;66.10;101532.47;5062611;28;45224;-59
2021/09/05 07:37:38;;;;;;;;;19.00;17.25;;;;;22.13;65.83;101541.91;5062689;28;45291;-59
2021/09/05 07:40:05;;;;;;;;;22.50;22.50;;;;;22.18;65.79;101539.63;5062510;28;45384;-59
2021/09/05 07:42:31;;;;;;;;;19.00;19.00;;;;;22.24;65.68;101539.03;5062142;28;45284;-59
2021/09/05 07:44:58;;;;;;;;;30.75;22.00;;;;;22.31;65.52;101544.66;5062088;28;45461;-59
2021/09/05 07:47:24;;;;;;;;;19.75;17.25;;;;;22.38;65.73;101546.63;5062379;28;45326;-59
2021/09/05 07:49:50;;;;;;;;;21.25;17.50;;;;;22.42;65.49;101553.38;5062227;28;45307;-59
2021/09/05 07:52:15;;;;;;;;;22.75;21.25;;;;;22.50;65.34;101555.31;5061938;28;45279;-59
2021/09/05 07:54:41;;;;;;;;;23.75;20.75;;;;;22.56;65.05;101552.88;5062526;28;45340;-59
2021/09/05 07:57:06;;;;;;;;;21.00;20.00;;;;;22.66;64.81;101557.34;5062122;28;45251;-59
2021/09/05 07:59:32;;;;;;;;;21.50;20.00;;;;;22.73;64.81;101553.06;5061738;28;45298;-59
2021/09/05 08:01:57;;;;;;;;;23.00;19.50;;;;;22.77;64.38;101566.06;5061673;28;45292;-59
2021/09/05 08:04:23;;;;;;;;;26.00;25.00;;;;;22.78;64.82;101566.91;5062051;28;45201;-59
2021/09/05 08:06:48;;;;;;;;;22.25;22.25;;;;;22.83;64.47;101570.00;5060725;28;45247;-60
2021/09/05 08:09:14;;;;;;;;;25.00;23.75;;;;;22.86;64.72;101572.41;5061995;28;45145;-59
2021/09/05 08:11:39;;;;;;;;;22.75;21.25;;;;;22.91;64.72;101572.81;5061663;28;45208;-60
2021/09/05 08:14:05;;;;;;;;;23.00;22.00;;;;;22.99;64.98;101572.06;5061888;28;45323;-59
2021/09/05 08:16:32;;;;;;;;;20.50;20.50;;;;;23.06;64.26;101570.44;5062411;28;45323;-59
2021/09/05 08:18:58;;;;;;;;;26.25;21.25;;;;;23.13;64.40;101571.50;5081915;28;45260;-61
2021/09/05 08:21:23;;;;;;;;;21.50;20.25;;;;;23.19;64.44;101575.44;5081482;28;45251;-59
2021/09/05 08:23:49;;;;;;;;;26.50;21.50;;;;;23.26;63.42;101584.59;5074563;28;45290;-59
2021/09/05 08:26:15;;;;;;;;;22.00;21.50;;;;;23.34;63.77;101587.34;5075900;28;45251;-59
2021/09/05 08:28:40;;;;;;;;;26.50;21.75;;;;;23.42;63.84;101589.28;5081603;28;45430;-59
2021/09/05 08:31:07;;;;;;;;;25.00;21.75;;;;;23.47;62.83;101590.53;5081592;27;45278;-59
2021/09/05 08:33:32;;;;;;;;;25.25;23.00;;;;;23.55;63.00;101595.13;5080808;28;45169;-59
2021/09/05 08:35:58;;;;;;;;;16.00;14.75;;;;;23.59;62.91;101591.97;5081602;28;45309;-59
2021/09/05 08:38:24;;;;;;;;;26.25;26.00;;;;;23.67;62.64;101591.22;5081472;27;45322;-59
2021/09/05 08:40:50;;;;;;;;;24.50;22.75;;;;;23.75;63.41;101593.13;5081466;27;45278;-59
2021/09/05 08:43:18;;;;;;;;;25.00;22.00;;;;;23.78;62.52;101591.00;5081014;27;45365;-59
2021/09/05 08:45:45;;;;;;;;;27.50;25.00;;;;;23.78;62.54;101599.06;5081330;27;45274;-59
2021/09/05 08:48:14;;;;;;;;;23.25;23.25;;;;;23.76;62.95;101590.28;5081491;27;46244;-59
2021/09/05 08:50:40;;;;;;;;;22.25;20.75;;;;;23.77;62.63;101591.97;5081431;28;45311;-59
2021/09/05 08:53:06;;;;;;;;;23.00;20.50;;;;;23.79;62.67;101595.38;5081470;27;45263;-59
2021/09/05 08:55:33;;;;;;;;;25.00;21.50;;;;;23.82;62.22;101592.34;5081361;27;45455;-59
2021/09/05 08:57:58;;;;;;;;;25.50;23.00;;;;;23.85;62.34;101599.25;5081635;27;45398;-59
2021/09/05 09:00:24;;;;;;;;;23.75;22.00;;;;;23.85;62.47;101589.34;5080838;27;45326;-59
2021/09/05 09:02:53;;;;;;;;;21.75;20.25;;;;;23.85;61.74;101602.78;5081568;27;45377;-59
2021/09/05 09:05:38;;;;;;;;;24.75;20.75;;;;;23.87;61.91;101600.81;5081377;27;45213;-59
2021/09/05 09:08:12;;;;;;;;;20.00;18.50;;;;;23.89;61.90;101596.09;5081411;27;45375;-59
2021/09/05 09:10:52;;;;;;;;;23.00;21.75;;;;;23.90;61.67;101596.94;5081261;28;45335;-59
2021/09/05 09:13:38;;;;;;;;;23.75;20.50;;;;;23.97;61.39;101608.78;5080913;28;45314;-59
2021/09/05 09:16:14;;;;;;;;;22.00;20.00;;;;;24.04;61.42;101606.31;5070571;27;45460;-59
2021/09/05 09:18:41;;;;;;;;;25.50;25.00;;;;;24.08;61.34;101608.50;5060696;28;45538;-59
2021/09/05 09:21:09;;;;;;;;;25.50;21.75;;;;;24.16;61.43;101605.88;5060476;28;45230;-60
2021/09/05 09:23:37;;;;;;;;;23.50;21.50;;;;;24.24;61.75;101605.06;5065832;28;45432;-59
2021/09/05 09:26:13;;;;;;;;;24.75;23.50;;;;;24.30;61.08;101601.75;5072634;28;45497;-59
2021/09/05 09:28:46;;;;;;;;;23.75;21.00;;;;;24.37;60.97;101602.00;5073361;27;45551;-59
2021/09/05 09:31:21;;;;;;;;;23.50;23.50;;;;;24.42;61.12;101605.91;5060607;28;45477;-59
2021/09/05 09:33:50;;;;;;;;;31.50;25.75;;;;;24.45;60.85;101608.28;5060638;28;45360;-59
2021/09/05 09:36:18;;;;;;;;;29.25;25.50;;;;;24.50;60.84;101607.81;5060613;28;45243;-59
2021/09/05 09:38:55;;;;;;;;;22.75;21.00;;;;;24.57;60.61;101608.84;5060626;28;45184;-59
2021/09/05 09:41:21;;;;;;;;;26.75;25.00;;;;;24.64;60.70;101604.47;5060451;28;45485;-59
2021/09/05 09:43:50;;;;;;;;;28.25;25.50;;;;;24.68;60.10;101602.31;5060212;28;45311;-59
2021/09/05 09:46:19;;;;;;;;;25.00;23.25;;;;;24.70;60.07;101603.00;5060545;28;45214;-59
2021/09/05 09:48:49;;;;;;;;;23.75;20.00;;;;;24.74;60.08;101607.91;5060403;28;45917;-59
2021/09/05 09:51:16;;;;;;;;;22.25;22.00;;;;;24.83;59.71;101599.84;5060549;28;45334;-59
2021/09/05 09:53:43;;;;;;;;;22.25;17.25;;;;;24.89;59.89;101597.34;5060526;28;45342;-59
2021/09/05 09:56:13;;;;;;;;;18.50;17.25;;;;;24.96;59.68;101600.22;5064083;28;45384;-59
2021/09/05 09:58:39;;;;;;;;;19.50;19.00;;;;;25.01;59.48;101603.28;5063656;28;45313;-59
2021/09/05 10:01:05;;;;;;;;;19.50;17.75;;;;;25.05;59.56;101600.13;5063814;28;45366;-59
2021/09/05 10:03:32;;;;;;;;;21.75;19.25;;;;;25.13;58.86;101593.06;5064026;28;45359;-59
2021/09/05 10:06:02;;;;;;;;;21.00;20.25;;;;;25.17;58.56;101594.41;5064136;28;45430;-59
2021/09/05 10:08:31;;;;;;;;;22.00;19.00;;;;;25.24;58.66;101595.44;5079258;27;45835;-59
2021/09/05 10:10:58;;;;;;;;;19.50;17.75;;;;;25.31;58.57;101599.16;5063809;28;45216;-59
2021/09/05 10:13:30;;;;;;;;;20.75;19.25;;;;;25.39;58.39;101601.03;5063249;28;45339;-59
2021/09/05 10:15:57;;;;;;;;;22.25;19.00;;;;;25.46;57.93;101597.50;5063589;28;45498;-59
2021/09/05 10:18:23;;;;;;;;;21.75;21.00;;;;;25.51;58.36;101594.28;5079876;28;45272;-60
2021/09/05 10:20:49;;;;;;;;;17.25;15.00;;;;;25.58;57.75;101590.75;5082602;28;45236;-59
2021/09/05 10:23:25;;;;;;;;;21.00;19.00;;;;;25.64;57.44;101599.19;5080393;27;45449;-59
2021/09/05 10:25:52;;;;;;;;;21.25;18.75;;;;;25.68;57.34;101587.06;5063893;28;45447;-59
2021/09/05 10:28:39;;;;;;;;;20.75;18.25;;;;;25.75;57.21;101588.09;5062914;28;45418;-59
2021/09/05 10:31:08;;;;;;;;;18.00;15.75;;;;;25.78;57.14;101593.16;5063195;28;45304;-59
2021/09/05 10:33:37;;;;;;;;;18.50;18.50;;;;;25.83;56.76;101586.25;5063316;28;45239;-59
2021/09/05 10:36:11;;;;;;;;;19.00;18.00;;;;;25.89;56.82;101590.94;5063370;28;45307;-59
2021/09/05 10:38:38;;;;;;;;;19.75;17.75;;;;;25.94;56.47;101586.91;5063198;28;46180;-60
2021/09/05 10:41:13;;;;;;;;;19.00;17.00;;;;;25.98;55.74;101590.94;5063304;28;45466;-59
2021/09/05 10:43:48;;;;;;;;;16.00;15.25;;;;;26.00;55.78;101586.22;5062948;28;45313;-59
2021/09/05 10:46:16;;;;;;;;;18.25;16.75;;;;;26.08;55.72;101580.81;5062790;28;45575;-59
2021/09/05 10:48:47;;;;;;;;;14.75;13.00;;;;;26.16;55.71;101578.09;5063097;28;45311;-59
2021/09/05 10:51:14;;;;;;;;;15.50;15.50;;;;;26.25;55.17;101577.06;5062873;28;45377;-59
2021/09/05 10:53:57;;;;;;;;;15.50;14.50;;;;;26.34;55.41;101577.88;5063049;28;45301;-59
2021/09/05 10:56:24;;;;;;;;;18.00;14.75;;;;;26.39;55.31;101579.06;5071486;28;45337;-59
2021/09/05 10:58:59;;;;;;;;;14.00;14.00;;;;;26.46;54.92;101575.66;5082914;28;46072;-59
2021/09/05 11:01:35;;;;;;;;;17.75;16.75;;;;;26.54;54.90;101576.47;5082880;27;45338;-59
2021/09/05 11:04:09;;;;;;;;;13.25;13.25;;;;;26.60;54.60;101573.06;5083064;27;45223;-60
2021/09/05 11:06:42;;;;;;;;;14.75;12.75;;;;;26.61;53.93;101574.75;5082875;27;45386;-60